METAR Data
IDs: Format: Raw Decoded Include TAF

Data at: 0150 UTC 26 Apr 2019

PAQH 260056Z AUTO 33016G20KT 10SM BKN049 BKN060 07/M02 A3026 RMK AO2 SLP248 T00721022
PAQH 252356Z AUTO 35014G18KT 10SM CLR 06/M03 A3027 RMK AO2 SLP249 T00611033 10061 21017 53002
PAQH 252256Z AUTO 34015G20KT 10SM CLR 06/M04 A3026 RMK AO2 SLP249 T00561044
PAQH 252156Z AUTO 32014G17KT 10SM CLR 04/M04 A3026 RMK AO2 SLP247 T00441044
PAQH 252056Z AUTO 32011KT 10SM CLR 03/M05 A3026 RMK AO2 SLP247 T00331050 53006
PAQH 251956Z AUTO 34008KT 10SM CLR 02/M04 A3025 RMK AO2 SLP245 T00221044 FZRANO
PAQH 251856Z AUTO 34007KT 10SM CLR 01/M04 A3024 RMK AO2 SLP241 T00061044 FZRANO
PAQH 251756Z AUTO 35009KT 10SM CLR M02/M04 A3024 RMK AO2 SLP241 T10171044 11017 21050 51012 FZRANO
PAQH 251656Z AUTO 34009KT 10SM BKN075 M03/M05 A3023 RMK AO2 SLP237 T10331050 FZRANO
PAQH 251556Z AUTO 33006KT 10SM CLR M04/M06 A3022 RMK AO2 SLP233 T10441056 FZRANO
PAQH 251456Z AUTO 33008KT 10SM FEW055 OVC080 M04/M06 A3021 RMK AO2 SLP229 T10391056 53003 FZRANO
PAQH 251356Z AUTO 32008KT 10SM FEW055 SCT070 BKN080 M04/M06 A3020 RMK AO2 SLP227 T10391056 FZRANO
PAQH 251256Z AUTO 30006KT 10SM SCT055 BKN080 M04/M06 A3020 RMK AO2 SLP227 T10441056 FZRANO
PAQH 251156Z AUTO 34005KT 10SM FEW048 SCT055 OVC075 M04/M05 A3020 RMK AO2 SLP226 T10391050 10000 21039 51006 FZRANO
PAQH 251056Z AUTO 33006KT 10SM FEW060 OVC070 M04/M06 A3019 RMK AO2 SLP225 T10391056 FZRANO
PAQH 250956Z AUTO 32007KT 10SM SCT070 M04/M06 A3019 RMK AO2 SLP224 T10391056 FZRANO
PAQH 250856Z AUTO 31008KT 10SM CLR M03/M06 A3018 RMK AO2 SLP220 T10331056 400281089 52010 FZRANO
PAQH 250756Z AUTO 29008KT 10SM CLR M03/M06 A3017 RMK AO2 SLP216 T10281056 FZRANO
PAQH 250656Z AUTO 28008KT 10SM CLR M01/M04 A3016 RMK AO2 SLP213 T10111039 FZRANO
PAQH 250556Z AUTO 27010KT 10SM CLR 00/M04 A3015 RMK AO2 SLP210 T00001039 10028 20000 53008 FZRANO
PAQH 250456Z AUTO 27014KT 10SM SCT050 01/M05 A3014 RMK AO2 SLP205 T00111050 FZRANO
PAQH 250356Z AUTO 30010KT 10SM CLR 02/M08 A3013 RMK AO2 SLP203 T00221083 FZRANO
PAQH 250256Z AUTO 34010KT 10SM CLR 03/M09 A3012 RMK AO2 SLP201 T00281094 52003
PAQH 250156Z AUTO 33009G18KT 10SM CLR 02/M09 A3012 RMK AO2 SLP201 T00221089 FZRANO
PAQH 250056Z AUTO 33007KT 10SM FEW050 02/M08 A3012 RMK AO2 SLP199 T00221083 FZRANO
PAQH 242356Z AUTO 29011KT 10SM CLR 02/M09 A3012 RMK AO2 SLP198 T00221089 10022 21033 51005 FZRANO
PAQH 242256Z AUTO 30007KT 10SM CLR 01/M09 A3011 RMK AO2 SLP197 T00111089 FZRANO
PAQH 242156Z AUTO 31011KT 10SM CLR 01/M09 A3011 RMK AO2 SLP196 T00111089 FZRANO
PAQH 242056Z AUTO 32008KT 10SM CLR 01/M09 A3010 RMK AO2 SLP193 T00111094 53010 FZRANO
PAQH 241956Z AUTO 01009KT 10SM CLR 01/M10 A3009 RMK AO2 SLP190 T00061100 FZRANO
PAQH 241856Z AUTO 01007KT 10SM CLR M01/M08 A3008 RMK AO2 SLP185 T10111083 FZRANO
PAQH 241656Z AUTO 02005KT 10SM CLR M07/M09 A3006 RMK AO2 SLP180 T10671094 FZRANO
PAQH 241556Z AUTO 04006KT 10SM CLR M08/M10 A3004 RMK AO2 SLP173 T10781100 FZRANO
PAQH 241456Z AUTO 04006KT 10SM CLR M08/M10 A3003 RMK AO2 SLP169 T10831100 53011 FZRANO
PAQH 241356Z AUTO 04006KT 10SM CLR M08/M09 A3002 RMK AO2 SLP165 T10781094 FZRANO